x

Caribbean Valley - 76 Nm Ssw Of Plymouth, Montserrat (42060) Wave Buoy

10:50am - Tue 16th Sep 2014 All times are AST. -4 hours from GMT.

  • Sig Wave height 3.3ft
  • Swell Direction
  • Peak Period 5s
  • Average Period 5s
  • Wind
    13mph, 16mph gusts
  • Sea Temp 84°f
  • Air Temp 83°f
  • Sea Pressure 1015.4mb
  • Caribbean Valley - 76 Nm Ssw Of Plymouth, Montserrat
  • Caribbean Valley - 76 Nm Ssw Of Plymouth, Montserrat

More Historic Weather Station data

Upgrade to MSW Pro to gain access to the past 30 days of data for over 8000 Wavebouys and Weather Stations around the globe.

Join Pro

Comparision Forecast

View Surf forecast
   
Tue 09/16 10:50am 3.5ft 5s 5s 13 16 mph 1015.4mb 84f 83f
9:50am 3.5ft 9s 5s 13 18 mph 1015.6mb 84f 83f
8:50am 3ft 5s 4s 16 18 mph 1015.4mb 84f 83f
7:50am 3.5ft 4s 4s 18 20 mph 1014.6mb 84f 83f
6:50am 3ft 9s 5s 18 22 mph 1013.8mb 84f 82f
5:50am 3.5ft 9s 5s 16 18 mph 1013.6mb 84f 82f
4:50am 3ft 5s 5s 13 16 mph 1013.7mb 84f 83f
3:50am 3ft 4s 5s 13 16 mph 1013.5mb 84f 83f
2:50am 3ft 10s 5s 16 20 mph 1013.8mb 84f 80f
1:50am 3ft 10s 5s 13 18 mph 1014.3mb 84f 83f
12:50am 3ft 10s 5s 13 18 mph 1014.9mb 84f 83f
Mon 09/15 11:50pm 2.5ft 9s 5s 16 18 mph 1015.3mb 84f 83f
10:50pm 3ft 10s 6s 9 11 mph 1015.6mb 85f 83f
9:50pm 3ft 10s 5s 11 13 mph 1015.8mb 85f 83f
8:50pm 2.5ft 10s 6s 13 16 mph 1015mb 84f 83f
7:50pm 2.5ft 10s 6s 11 13 mph 1014.7mb 85f 83f
6:50pm 2.5ft 10s 5s 9 11 mph 1014.2mb 85f 83f
5:50pm 2.5ft 11s 6s 9 11 mph 1013.7mb 85f 83f
4:50pm 2.5ft 11s 5s 9 11 mph 1013.5mb 85f 83f
3:50pm 3ft 10s 6s 9
mph
1013.5mb 85f 83f
2:50pm 3ft 10s 5s 9 11 mph 1013.7mb 85f 83f
1:50pm 3ft 11s 5s 9 11 mph 1014.1mb 85f 83f
12:50pm 3.5ft 11s 5s 9 11 mph 1014.8mb 85f 83f
11:50am 3.5ft 11s 5s 11 13 mph 1015.5mb 84f 83f
10:50am 3.5ft 11s 5s 9 11 mph 1016.1mb 84f 83f
9:50am 3.5ft 11s 5s 11 13 mph 1015.9mb 84f 83f
8:50am 3ft 11s 5s 11 13 mph 1015.8mb 84f 83f
7:50am 3.5ft 11s 5s 11
mph
1015mb 84f 83f
6:50am 3ft 11s 5s 9 11 mph 1014.2mb 84f 83f
5:50am 3.5ft 11s 5s 11 13 mph 1014.1mb 84f 83f
4:50am 3.5ft 5s 5s 13 18 mph 1013.6mb 84f 83f
3:50am 3.5ft 5s 5s 13 16 mph 1013.5mb 84f 83f
2:50am 3.5ft 5s 5s 13 16 mph 1013.6mb 84f 82f
1:50am 3.5ft 5s 4s 16 18 mph 1013.9mb 84f 83f
12:50am 3.5ft 5s 5s 16 18 mph 1014.5mb 84f 83f
Sun 09/14 11:50pm 3.5ft 5s 5s 16 18 mph 1015.1mb 84f 83f
10:50pm 3.5ft 5s 5s 16 18 mph 1015.1mb 84f 83f
9:50pm 3.5ft 7s 5s 16 18 mph 1014.8mb 84f 83f
8:50pm 3.5ft 6s 5s 13 16 mph 1014.4mb 84f 84f
7:50pm 3.5ft 8s 5s 11 13 mph 1014.2mb 84f 83f
6:50pm 3.5ft 5s 5s 11
mph
1013.6mb 84f 83f
5:50pm 3.5ft 7s 5s 11 13 mph 1013.3mb 84f 83f
4:50pm 3.5ft 7s 5s 11 13 mph 1013.4mb 85f 84f
3:50pm 3.5ft 5s 5s 11 13 mph 1013.4mb 85f 84f
2:50pm 3.5ft 5s 5s 11 13 mph 1013.5mb 84f 83f
1:50pm 3.5ft 5s 5s 11 13 mph 1013.8mb 84f 83f
12:50pm 3.5ft 5s 5s 11 13 mph 1014.4mb 84f 83f
11:50am 4ft 5s 5s 13 16 mph 1014.8mb 84f 83f
10:50am 4ft 6s 5s 16 18 mph 1015.2mb 84f 83f
9:50am 4.5ft 5s 5s 13 18 mph 1015.4mb 84f 83f
8:50am 3.5ft 5s 5s 11 16 mph 1015.2mb 84f 83f
7:50am 4ft 5s 5s 11 13 mph 1014.6mb 84f 82f
6:50am 4ft 5s 5s 11 13 mph 1014mb 83f 81f
5:50am 4ft 5s 5s 13 25 mph 1013.7mb 84f 82f
4:50am 3.5ft 6s 5s 9 11 mph 1013.5mb 83f 80f
3:50am 4ft 8s 5s 13 16 mph 1013.1mb 84f 82f
2:50am 4ft 7s 5s 18 25 mph 1013mb 84f 81f
1:50am 3.5ft 5s 5s 16 18 mph 1013.4mb 84f 82f
12:50am 3.5ft 5s 5s 16 18 mph 1013.7mb 84f 83f
Sat 09/13 11:50pm 4ft 6s 5s 16 18 mph 1014.2mb 84f 83f
10:50pm 4.5ft 5s 5s 18 20 mph 1014.4mb 84f 83f
9:50pm 4.5ft 7s 5s 18 22 mph 1014.4mb 84f 84f
8:50pm 4.5ft 5s 5s 18 20 mph 1014mb 84f 83f
7:50pm 4ft 6s 4s 18 22 mph 1013.3mb 84f 83f
6:50pm 4ft 5s 5s 18 22 mph 1013mb 84f 83f
5:50pm 3.5ft 6s 4s 16 18 mph 1013mb 84f 83f
4:50pm 4ft 5s 4s 18 20 mph 1012.8mb 84f 84f
3:50pm 3.5ft 7s 4s 18 20 mph 1012.9mb 84f 84f
2:50pm 4ft 5s 5s 18
mph
1013.2mb 84f 84f
1:50pm 4ft 6s 5s 16 18 mph 1013.7mb 84f 83f
12:50pm 4ft 5s 5s 16 18 mph 1014.2mb 84f 83f
11:50am 4.5ft 6s 5s 18 20 mph 1015.1mb 84f 83f
10:50am 4.5ft 6s 4s 20 22 mph 1015.3mb 84f 83f
9:50am 5ft 6s 5s 20 22 mph 1015.2mb 84f 83f
8:50am 4ft 5s 4s 20 22 mph 1014.4mb 84f 84f
7:50am 4ft 5s 4s 20 22 mph 1013.9mb 84f 83f
6:50am 4ft 6s 4s 18 22 mph 1013.3mb 84f 83f
5:50am 4ft 5s 4s 20 25 mph 1012.6mb 84f 83f
4:50am 4.5ft 6s 5s 18 22 mph 1012.4mb 84f 83f
3:50am 4ft 5s 4s 18 20 mph 1012.2mb 84f 83f
2:50am 4.5ft 6s 5s 20 25 mph 1012.6mb 84f 83f
1:50am 4ft 6s 5s 18 22 mph 1013.1mb 84f 83f
12:50am 4.5ft 5s 4s 18 22 mph 1013.6mb 84f 83f
Fri 09/12 11:50pm 4ft 5s 4s 18 22 mph 1013.9mb 84f 83f
10:50pm 4.5ft 5s 4s 18 22 mph 1014.1mb 84f 83f
9:50pm 4ft 6s 5s 20 25 mph 1014mb 84f 84f
8:50pm 4.5ft 5s 5s 16 18 mph 1013.7mb 84f 83f
7:50pm 4ft 7s 5s 18 20 mph 1013.2mb 84f 84f
6:50pm 3.5ft 7s 5s 16 18 mph 1013mb 84f 84f
5:50pm 3.5ft 7s 5s 16 18 mph 1012.5mb 84f 84f
4:50pm 3.5ft 7s 5s 16 20 mph 1012.4mb 84f 84f